sensor_id;sensor_type;location;lat;lon;timestamp;P1;durP1;ratioP1;P2;durP2;ratioP2
33421;SDS011;19763;55.798;37.782;2023-10-31T00:02:13;4.82;;;4.07;;
33421;SDS011;19763;55.798;37.782;2023-10-31T00:04:39;6.63;;;4.55;;
33421;SDS011;19763;55.798;37.782;2023-10-31T00:07:05;7.15;;;4.72;;
33421;SDS011;19763;55.798;37.782;2023-10-31T00:09:31;5.22;;;4.40;;
33421;SDS011;19763;55.798;37.782;2023-10-31T00:11:57;5.47;;;3.90;;
33421;SDS011;19763;55.798;37.782;2023-10-31T00:14:23;4.78;;;3.67;;
33421;SDS011;19763;55.798;37.782;2023-10-31T00:16:49;4.20;;;3.78;;
33421;SDS011;19763;55.798;37.782;2023-10-31T00:19:15;5.60;;;3.80;;
33421;SDS011;19763;55.798;37.782;2023-10-31T00:21:40;4.75;;;4.05;;
33421;SDS011;19763;55.798;37.782;2023-10-31T00:24:06;4.93;;;3.60;;
33421;SDS011;19763;55.798;37.782;2023-10-31T00:26:32;5.00;;;3.83;;
33421;SDS011;19763;55.798;37.782;2023-10-31T00:28:58;7.40;;;4.20;;
33421;SDS011;19763;55.798;37.782;2023-10-31T00:31:23;6.18;;;3.88;;
33421;SDS011;19763;55.798;37.782;2023-10-31T00:33:49;5.88;;;4.43;;
33421;SDS011;19763;55.798;37.782;2023-10-31T00:36:14;5.47;;;3.63;;
33421;SDS011;19763;55.798;37.782;2023-10-31T00:38:41;4.93;;;3.53;;
33421;SDS011;19763;55.798;37.782;2023-10-31T00:41:06;4.78;;;3.92;;
33421;SDS011;19763;55.798;37.782;2023-10-31T00:43:32;6.18;;;3.90;;
33421;SDS011;19763;55.798;37.782;2023-10-31T00:45:57;5.28;;;3.80;;
33421;SDS011;19763;55.798;37.782;2023-10-31T00:48:23;6.05;;;4.00;;
33421;SDS011;19763;55.798;37.782;2023-10-31T00:50:49;4.05;;;3.65;;
33421;SDS011;19763;55.798;37.782;2023-10-31T00:53:14;5.95;;;3.67;;
33421;SDS011;19763;55.798;37.782;2023-10-31T00:55:41;5.30;;;3.63;;
33421;SDS011;19763;55.798;37.782;2023-10-31T00:58:07;4.78;;;4.22;;
33421;SDS011;19763;55.798;37.782;2023-10-31T01:00:33;5.25;;;3.60;;
33421;SDS011;19763;55.798;37.782;2023-10-31T01:03:00;6.25;;;4.05;;
33421;SDS011;19763;55.798;37.782;2023-10-31T01:05:25;5.25;;;3.85;;
33421;SDS011;19763;55.798;37.782;2023-10-31T01:07:53;7.00;;;4.10;;
33421;SDS011;19763;55.798;37.782;2023-10-31T01:10:19;4.15;;;3.75;;
33421;SDS011;19763;55.798;37.782;2023-10-31T01:12:45;4.65;;;3.67;;
33421;SDS011;19763;55.798;37.782;2023-10-31T01:15:11;8.38;;;4.45;;
33421;SDS011;19763;55.798;37.782;2023-10-31T01:17:36;6.78;;;4.07;;
33421;SDS011;19763;55.798;37.782;2023-10-31T01:20:03;4.95;;;3.53;;
33421;SDS011;19763;55.798;37.782;2023-10-31T01:22:29;4.70;;;3.92;;
33421;SDS011;19763;55.798;37.782;2023-10-31T01:24:55;5.75;;;3.42;;
33421;SDS011;19763;55.798;37.782;2023-10-31T01:27:21;6.32;;;3.92;;
33421;SDS011;19763;55.798;37.782;2023-10-31T01:29:46;7.15;;;3.75;;
33421;SDS011;19763;55.798;37.782;2023-10-31T01:32:12;6.57;;;3.67;;
33421;SDS011;19763;55.798;37.782;2023-10-31T01:34:38;4.75;;;3.95;;
33421;SDS011;19763;55.798;37.782;2023-10-31T01:37:04;4.80;;;3.92;;
33421;SDS011;19763;55.798;37.782;2023-10-31T01:39:29;6.85;;;3.80;;
33421;SDS011;19763;55.798;37.782;2023-10-31T01:41:55;4.65;;;3.58;;
33421;SDS011;19763;55.798;37.782;2023-10-31T01:44:21;4.47;;;3.70;;
33421;SDS011;19763;55.798;37.782;2023-10-31T01:46:47;6.00;;;3.85;;
33421;SDS011;19763;55.798;37.782;2023-10-31T01:49:13;7.32;;;4.65;;
33421;SDS011;19763;55.798;37.782;2023-10-31T01:51:42;5.65;;;3.72;;
33421;SDS011;19763;55.798;37.782;2023-10-31T01:54:10;4.25;;;3.40;;
33421;SDS011;19763;55.798;37.782;2023-10-31T01:56:36;4.70;;;4.20;;
33421;SDS011;19763;55.798;37.782;2023-10-31T01:59:04;4.43;;;3.72;;
33421;SDS011;19763;55.798;37.782;2023-10-31T02:01:30;4.40;;;3.35;;
33421;SDS011;19763;55.798;37.782;2023-10-31T02:03:58;4.63;;;3.72;;
33421;SDS011;19763;55.798;37.782;2023-10-31T02:06:27;5.65;;;3.85;;
33421;SDS011;19763;55.798;37.782;2023-10-31T02:08:55;4.57;;;3.80;;
33421;SDS011;19763;55.798;37.782;2023-10-31T02:11:21;3.88;;;3.47;;
33421;SDS011;19763;55.798;37.782;2023-10-31T02:13:47;7.18;;;4.00;;
33421;SDS011;19763;55.798;37.782;2023-10-31T02:16:12;4.80;;;3.67;;
33421;SDS011;19763;55.798;37.782;2023-10-31T02:18:38;4.15;;;3.75;;
33421;SDS011;19763;55.798;37.782;2023-10-31T02:21:04;7.63;;;4.70;;
33421;SDS011;19763;55.798;37.782;2023-10-31T02:23:29;3.97;;;3.42;;
33421;SDS011;19763;55.798;37.782;2023-10-31T02:25:55;5.45;;;3.50;;
33421;SDS011;19763;55.798;37.782;2023-10-31T02:28:21;5.97;;;3.72;;
33421;SDS011;19763;55.798;37.782;2023-10-31T02:30:46;4.60;;;3.42;;
33421;SDS011;19763;55.798;37.782;2023-10-31T02:33:12;6.82;;;3.30;;
33421;SDS011;19763;55.798;37.782;2023-10-31T02:35:38;3.63;;;3.30;;
33421;SDS011;19763;55.798;37.782;2023-10-31T02:38:03;3.92;;;3.47;;
33421;SDS011;19763;55.798;37.782;2023-10-31T02:40:29;4.75;;;3.33;;
33421;SDS011;19763;55.798;37.782;2023-10-31T02:42:55;3.42;;;3.05;;
33421;SDS011;19763;55.798;37.782;2023-10-31T02:45:20;5.75;;;3.65;;
33421;SDS011;19763;55.798;37.782;2023-10-31T02:47:46;3.67;;;3.22;;
33421;SDS011;19763;55.798;37.782;2023-10-31T02:50:12;7.10;;;3.20;;
33421;SDS011;19763;55.798;37.782;2023-10-31T02:52:38;3.40;;;3.10;;
33421;SDS011;19763;55.798;37.782;2023-10-31T02:55:03;4.93;;;3.50;;
33421;SDS011;19763;55.798;37.782;2023-10-31T02:57:31;2.85;;;2.65;;
33421;SDS011;19763;55.798;37.782;2023-10-31T02:59:57;7.38;;;3.58;;
33421;SDS011;19763;55.798;37.782;2023-10-31T03:02:22;4.20;;;2.92;;
33421;SDS011;19763;55.798;37.782;2023-10-31T03:04:48;3.30;;;3.00;;
33421;SDS011;19763;55.798;37.782;2023-10-31T03:07:14;4.20;;;2.97;;
33421;SDS011;19763;55.798;37.782;2023-10-31T03:09:39;6.25;;;3.28;;
33421;SDS011;19763;55.798;37.782;2023-10-31T03:12:05;6.43;;;4.80;;
33421;SDS011;19763;55.798;37.782;2023-10-31T03:14:31;6.32;;;5.72;;
33421;SDS011;19763;55.798;37.782;2023-10-31T03:16:57;4.43;;;3.88;;
33421;SDS011;19763;55.798;37.782;2023-10-31T03:19:23;4.70;;;3.20;;
33421;SDS011;19763;55.798;37.782;2023-10-31T03:21:49;4.70;;;3.17;;
33421;SDS011;19763;55.798;37.782;2023-10-31T03:24:14;4.30;;;3.28;;
33421;SDS011;19763;55.798;37.782;2023-10-31T03:26:40;4.43;;;2.80;;
33421;SDS011;19763;55.798;37.782;2023-10-31T03:29:06;4.03;;;3.33;;
33421;SDS011;19763;55.798;37.782;2023-10-31T03:31:31;4.65;;;2.85;;
33421;SDS011;19763;55.798;37.782;2023-10-31T03:33:57;6.15;;;3.05;;
33421;SDS011;19763;55.798;37.782;2023-10-31T03:36:22;4.78;;;3.53;;
33421;SDS011;19763;55.798;37.782;2023-10-31T03:38:48;4.72;;;3.28;;
33421;SDS011;19763;55.798;37.782;2023-10-31T03:41:14;4.50;;;3.25;;
33421;SDS011;19763;55.798;37.782;2023-10-31T03:43:39;3.95;;;3.17;;
33421;SDS011;19763;55.798;37.782;2023-10-31T03:46:05;5.25;;;3.70;;
33421;SDS011;19763;55.798;37.782;2023-10-31T03:48:31;6.97;;;3.85;;
33421;SDS011;19763;55.798;37.782;2023-10-31T03:50:57;4.72;;;3.47;;
33421;SDS011;19763;55.798;37.782;2023-10-31T03:53:23;5.25;;;3.25;;
33421;SDS011;19763;55.798;37.782;2023-10-31T03:55:48;5.97;;;3.72;;
33421;SDS011;19763;55.798;37.782;2023-10-31T03:58:14;4.95;;;3.25;;
33421;SDS011;19763;55.798;37.782;2023-10-31T04:00:39;3.72;;;3.42;;
33421;SDS011;19763;55.798;37.782;2023-10-31T04:03:07;6.38;;;3.95;;
33421;SDS011;19763;55.798;37.782;2023-10-31T04:05:33;4.30;;;3.13;;
33421;SDS011;19763;55.798;37.782;2023-10-31T04:07:58;6.15;;;3.30;;
33421;SDS011;19763;55.798;37.782;2023-10-31T04:10:24;4.00;;;3.33;;
33421;SDS011;19763;55.798;37.782;2023-10-31T04:12:50;6.25;;;4.40;;
33421;SDS011;19763;55.798;37.782;2023-10-31T04:15:16;4.63;;;4.03;;
33421;SDS011;19763;55.798;37.782;2023-10-31T04:17:41;5.32;;;3.80;;
33421;SDS011;19763;55.798;37.782;2023-10-31T04:20:07;6.25;;;4.10;;
33421;SDS011;19763;55.798;37.782;2023-10-31T04:22:33;5.15;;;4.18;;
33421;SDS011;19763;55.798;37.782;2023-10-31T04:24:59;5.05;;;3.92;;
33421;SDS011;19763;55.798;37.782;2023-10-31T04:27:24;6.72;;;4.57;;
33421;SDS011;19763;55.798;37.782;2023-10-31T04:29:50;6.57;;;4.63;;
33421;SDS011;19763;55.798;37.782;2023-10-31T04:32:16;6.03;;;3.92;;
33421;SDS011;19763;55.798;37.782;2023-10-31T04:34:41;6.72;;;4.60;;
33421;SDS011;19763;55.798;37.782;2023-10-31T04:37:07;7.57;;;4.43;;
33421;SDS011;19763;55.798;37.782;2023-10-31T04:39:33;6.63;;;4.85;;
33421;SDS011;19763;55.798;37.782;2023-10-31T04:41:58;6.13;;;4.70;;
33421;SDS011;19763;55.798;37.782;2023-10-31T04:44:24;5.93;;;4.45;;
33421;SDS011;19763;55.798;37.782;2023-10-31T04:46:49;10.10;;;5.63;;
33421;SDS011;19763;55.798;37.782;2023-10-31T04:49:15;9.13;;;5.80;;
33421;SDS011;19763;55.798;37.782;2023-10-31T04:51:41;7.70;;;5.78;;
33421;SDS011;19763;55.798;37.782;2023-10-31T04:54:07;10.32;;;6.97;;
33421;SDS011;19763;55.798;37.782;2023-10-31T04:56:33;10.40;;;5.82;;
33421;SDS011;19763;55.798;37.782;2023-10-31T04:58:59;6.68;;;5.38;;
33421;SDS011;19763;55.798;37.782;2023-10-31T05:01:25;6.55;;;5.43;;
33421;SDS011;19763;55.798;37.782;2023-10-31T05:03:50;6.75;;;4.90;;
33421;SDS011;19763;55.798;37.782;2023-10-31T05:06:20;10.75;;;6.15;;
33421;SDS011;19763;55.798;37.782;2023-10-31T05:08:47;11.18;;;6.72;;
33421;SDS011;19763;55.798;37.782;2023-10-31T05:11:13;10.35;;;6.30;;
33421;SDS011;19763;55.798;37.782;2023-10-31T05:13:39;9.35;;;5.93;;
33421;SDS011;19763;55.798;37.782;2023-10-31T05:16:05;9.32;;;7.28;;
33421;SDS011;19763;55.798;37.782;2023-10-31T05:18:31;15.93;;;8.57;;
33421;SDS011;19763;55.798;37.782;2023-10-31T05:20:57;16.83;;;8.85;;
33421;SDS011;19763;55.798;37.782;2023-10-31T05:23:23;12.55;;;8.35;;
33421;SDS011;19763;55.798;37.782;2023-10-31T05:25:48;15.18;;;9.50;;
33421;SDS011;19763;55.798;37.782;2023-10-31T05:28:14;15.82;;;9.75;;
33421;SDS011;19763;55.798;37.782;2023-10-31T05:30:40;15.30;;;9.60;;
33421;SDS011;19763;55.798;37.782;2023-10-31T05:33:05;16.80;;;9.98;;
33421;SDS011;19763;55.798;37.782;2023-10-31T05:35:32;12.18;;;8.98;;
33421;SDS011;19763;55.798;37.782;2023-10-31T05:37:58;12.15;;;8.65;;
33421;SDS011;19763;55.798;37.782;2023-10-31T05:40:24;13.52;;;8.70;;
33421;SDS011;19763;55.798;37.782;2023-10-31T05:42:51;14.82;;;8.52;;
33421;SDS011;19763;55.798;37.782;2023-10-31T05:45:17;14.02;;;8.15;;
33421;SDS011;19763;55.798;37.782;2023-10-31T05:47:43;13.13;;;8.13;;
33421;SDS011;19763;55.798;37.782;2023-10-31T05:50:09;13.02;;;8.75;;
33421;SDS011;19763;55.798;37.782;2023-10-31T05:52:34;11.60;;;8.43;;
33421;SDS011;19763;55.798;37.782;2023-10-31T05:55:01;10.68;;;8.68;;
33421;SDS011;19763;55.798;37.782;2023-10-31T05:57:30;16.58;;;9.40;;
33421;SDS011;19763;55.798;37.782;2023-10-31T05:59:56;13.38;;;8.15;;
33421;SDS011;19763;55.798;37.782;2023-10-31T06:02:21;14.52;;;8.52;;
33421;SDS011;19763;55.798;37.782;2023-10-31T06:04:47;12.50;;;7.82;;
33421;SDS011;19763;55.798;37.782;2023-10-31T06:07:12;9.73;;;6.70;;
33421;SDS011;19763;55.798;37.782;2023-10-31T06:09:38;12.00;;;8.77;;
33421;SDS011;19763;55.798;37.782;2023-10-31T06:12:04;9.40;;;7.82;;
33421;SDS011;19763;55.798;37.782;2023-10-31T06:14:30;10.55;;;7.88;;
33421;SDS011;19763;55.798;37.782;2023-10-31T06:16:57;9.68;;;7.65;;
33421;SDS011;19763;55.798;37.782;2023-10-31T06:19:24;11.52;;;7.18;;
33421;SDS011;19763;55.798;37.782;2023-10-31T06:21:50;10.52;;;7.20;;
33421;SDS011;19763;55.798;37.782;2023-10-31T06:24:15;10.82;;;7.53;;
33421;SDS011;19763;55.798;37.782;2023-10-31T06:26:41;10.20;;;7.03;;
33421;SDS011;19763;55.798;37.782;2023-10-31T06:29:07;10.55;;;6.38;;
33421;SDS011;19763;55.798;37.782;2023-10-31T06:31:32;9.20;;;6.57;;
33421;SDS011;19763;55.798;37.782;2023-10-31T06:33:58;10.80;;;7.47;;
33421;SDS011;19763;55.798;37.782;2023-10-31T06:36:24;10.50;;;7.65;;
33421;SDS011;19763;55.798;37.782;2023-10-31T06:38:50;8.85;;;6.80;;
33421;SDS011;19763;55.798;37.782;2023-10-31T06:41:15;7.85;;;6.55;;
33421;SDS011;19763;55.798;37.782;2023-10-31T06:43:41;11.90;;;7.20;;
33421;SDS011;19763;55.798;37.782;2023-10-31T06:46:07;9.77;;;6.90;;
33421;SDS011;19763;55.798;37.782;2023-10-31T06:48:33;9.25;;;6.30;;
33421;SDS011;19763;55.798;37.782;2023-10-31T06:50:59;8.85;;;7.03;;
33421;SDS011;19763;55.798;37.782;2023-10-31T06:53:25;9.25;;;6.80;;
33421;SDS011;19763;55.798;37.782;2023-10-31T06:55:51;9.48;;;6.55;;
33421;SDS011;19763;55.798;37.782;2023-10-31T06:58:16;9.52;;;6.78;;
33421;SDS011;19763;55.798;37.782;2023-10-31T07:00:42;13.68;;;7.80;;
33421;SDS011;19763;55.798;37.782;2023-10-31T07:03:08;9.15;;;6.82;;
33421;SDS011;19763;55.798;37.782;2023-10-31T07:05:36;10.18;;;6.68;;
33421;SDS011;19763;55.798;37.782;2023-10-31T07:08:02;10.43;;;6.47;;
33421;SDS011;19763;55.798;37.782;2023-10-31T07:10:29;8.77;;;6.18;;
33421;SDS011;19763;55.798;37.782;2023-10-31T07:12:55;9.85;;;6.45;;
33421;SDS011;19763;55.798;37.782;2023-10-31T07:15:20;8.82;;;6.90;;
33421;SDS011;19763;55.798;37.782;2023-10-31T07:17:46;8.48;;;5.88;;
33421;SDS011;19763;55.798;37.782;2023-10-31T07:21:09;12.27;;;6.97;;
33421;SDS011;19763;55.798;37.782;2023-10-31T07:23:35;10.65;;;6.70;;
33421;SDS011;19763;55.798;37.782;2023-10-31T07:26:01;11.40;;;7.18;;
33421;SDS011;19763;55.798;37.782;2023-10-31T07:28:26;9.13;;;7.22;;
33421;SDS011;19763;55.798;37.782;2023-10-31T07:32:59;9.30;;;7.05;;
33421;SDS011;19763;55.798;37.782;2023-10-31T07:35:25;10.48;;;7.18;;
33421;SDS011;19763;55.798;37.782;2023-10-31T07:37:50;12.30;;;7.20;;
33421;SDS011;19763;55.798;37.782;2023-10-31T07:40:16;12.90;;;7.30;;
33421;SDS011;19763;55.798;37.782;2023-10-31T07:42:41;10.77;;;7.45;;
33421;SDS011;19763;55.798;37.782;2023-10-31T07:45:07;11.95;;;9.10;;
33421;SDS011;19763;55.798;37.782;2023-10-31T07:47:33;9.95;;;8.02;;
33421;SDS011;19763;55.798;37.782;2023-10-31T07:49:59;10.70;;;8.27;;
33421;SDS011;19763;55.798;37.782;2023-10-31T07:52:24;11.00;;;8.30;;
33421;SDS011;19763;55.798;37.782;2023-10-31T07:54:51;29.00;;;19.15;;
33421;SDS011;19763;55.798;37.782;2023-10-31T07:57:17;12.73;;;9.82;;
33421;SDS011;19763;55.798;37.782;2023-10-31T07:59:43;11.57;;;7.70;;
33421;SDS011;19763;55.798;37.782;2023-10-31T08:02:08;12.77;;;8.15;;
33421;SDS011;19763;55.798;37.782;2023-10-31T08:04:34;10.00;;;8.23;;
33421;SDS011;19763;55.798;37.782;2023-10-31T08:07:00;12.93;;;8.27;;
33421;SDS011;19763;55.798;37.782;2023-10-31T08:09:25;10.82;;;8.00;;
33421;SDS011;19763;55.798;37.782;2023-10-31T08:11:51;8.90;;;8.00;;
33421;SDS011;19763;55.798;37.782;2023-10-31T08:14:16;9.55;;;8.02;;
33421;SDS011;19763;55.798;37.782;2023-10-31T08:16:42;12.18;;;7.97;;
33421;SDS011;19763;55.798;37.782;2023-10-31T08:19:08;8.98;;;7.63;;
33421;SDS011;19763;55.798;37.782;2023-10-31T08:21:34;9.93;;;7.72;;
33421;SDS011;19763;55.798;37.782;2023-10-31T08:24:01;9.45;;;8.15;;
33421;SDS011;19763;55.798;37.782;2023-10-31T08:26:29;9.77;;;7.95;;
33421;SDS011;19763;55.798;37.782;2023-10-31T08:28:55;9.80;;;8.00;;
33421;SDS011;19763;55.798;37.782;2023-10-31T08:31:21;12.60;;;8.15;;
33421;SDS011;19763;55.798;37.782;2023-10-31T08:33:46;12.05;;;8.48;;
33421;SDS011;19763;55.798;37.782;2023-10-31T08:36:12;13.55;;;8.20;;
33421;SDS011;19763;55.798;37.782;2023-10-31T08:38:42;14.90;;;8.90;;
33421;SDS011;19763;55.798;37.782;2023-10-31T08:41:07;10.77;;;8.73;;
33421;SDS011;19763;55.798;37.782;2023-10-31T08:43:33;10.68;;;8.13;;
33421;SDS011;19763;55.798;37.782;2023-10-31T08:45:59;11.05;;;8.40;;
33421;SDS011;19763;55.798;37.782;2023-10-31T08:48:25;10.73;;;8.55;;
33421;SDS011;19763;55.798;37.782;2023-10-31T08:50:51;10.70;;;9.15;;
33421;SDS011;19763;55.798;37.782;2023-10-31T08:53:17;11.30;;;8.85;;
33421;SDS011;19763;55.798;37.782;2023-10-31T08:55:44;10.60;;;8.48;;
33421;SDS011;19763;55.798;37.782;2023-10-31T08:58:14;13.63;;;10.20;;
33421;SDS011;19763;55.798;37.782;2023-10-31T09:00:40;12.82;;;9.43;;
33421;SDS011;19763;55.798;37.782;2023-10-31T09:03:07;13.93;;;10.35;;
33421;SDS011;19763;55.798;37.782;2023-10-31T09:05:33;17.67;;;12.85;;
33421;SDS011;19763;55.798;37.782;2023-10-31T09:07:59;14.50;;;11.35;;
33421;SDS011;19763;55.798;37.782;2023-10-31T09:10:24;14.65;;;11.70;;
33421;SDS011;19763;55.798;37.782;2023-10-31T09:12:50;13.27;;;10.52;;
33421;SDS011;19763;55.798;37.782;2023-10-31T09:15:16;13.32;;;10.50;;
33421;SDS011;19763;55.798;37.782;2023-10-31T09:17:42;13.73;;;10.70;;
33421;SDS011;19763;55.798;37.782;2023-10-31T09:20:07;12.38;;;9.50;;
33421;SDS011;19763;55.798;37.782;2023-10-31T09:22:33;12.55;;;9.48;;
33421;SDS011;19763;55.798;37.782;2023-10-31T09:24:59;11.43;;;9.25;;
33421;SDS011;19763;55.798;37.782;2023-10-31T09:27:25;11.18;;;9.60;;
33421;SDS011;19763;55.798;37.782;2023-10-31T09:29:50;9.77;;;8.75;;
33421;SDS011;19763;55.798;37.782;2023-10-31T09:32:18;14.25;;;10.45;;
33421;SDS011;19763;55.798;37.782;2023-10-31T09:34:43;13.95;;;8.25;;
33421;SDS011;19763;55.798;37.782;2023-10-31T09:37:09;10.20;;;8.07;;
33421;SDS011;19763;55.798;37.782;2023-10-31T09:39:35;10.30;;;7.60;;
33421;SDS011;19763;55.798;37.782;2023-10-31T09:42:00;7.57;;;5.90;;
33421;SDS011;19763;55.798;37.782;2023-10-31T09:44:26;9.00;;;5.82;;
33421;SDS011;19763;55.798;37.782;2023-10-31T09:46:52;9.20;;;6.45;;
33421;SDS011;19763;55.798;37.782;2023-10-31T09:49:18;7.85;;;6.47;;
33421;SDS011;19763;55.798;37.782;2023-10-31T09:51:44;10.80;;;6.53;;
33421;SDS011;19763;55.798;37.782;2023-10-31T09:54:12;10.30;;;7.28;;
33421;SDS011;19763;55.798;37.782;2023-10-31T09:56:41;7.90;;;7.10;;
33421;SDS011;19763;55.798;37.782;2023-10-31T09:59:07;8.80;;;6.57;;
33421;SDS011;19763;55.798;37.782;2023-10-31T10:01:33;10.63;;;6.70;;
33421;SDS011;19763;55.798;37.782;2023-10-31T10:03:59;10.75;;;6.78;;
33421;SDS011;19763;55.798;37.782;2023-10-31T10:06:25;7.50;;;5.95;;
33421;SDS011;19763;55.798;37.782;2023-10-31T10:08:51;9.18;;;6.28;;
33421;SDS011;19763;55.798;37.782;2023-10-31T10:11:17;9.30;;;6.32;;
33421;SDS011;19763;55.798;37.782;2023-10-31T10:13:43;8.75;;;6.47;;
33421;SDS011;19763;55.798;37.782;2023-10-31T10:16:09;10.82;;;6.68;;
33421;SDS011;19763;55.798;37.782;2023-10-31T10:18:35;9.57;;;6.45;;
33421;SDS011;19763;55.798;37.782;2023-10-31T10:21:04;6.75;;;6.05;;
33421;SDS011;19763;55.798;37.782;2023-10-31T10:23:31;7.93;;;6.25;;
33421;SDS011;19763;55.798;37.782;2023-10-31T10:25:58;10.63;;;6.07;;
33421;SDS011;19763;55.798;37.782;2023-10-31T10:28:26;9.55;;;6.60;;
33421;SDS011;19763;55.798;37.782;2023-10-31T10:30:54;7.97;;;6.47;;
33421;SDS011;19763;55.798;37.782;2023-10-31T10:33:20;8.13;;;6.22;;
33421;SDS011;19763;55.798;37.782;2023-10-31T10:35:47;7.90;;;6.25;;
33421;SDS011;19763;55.798;37.782;2023-10-31T10:38:14;13.65;;;7.50;;
33421;SDS011;19763;55.798;37.782;2023-10-31T10:40:42;10.85;;;6.90;;
33421;SDS011;19763;55.798;37.782;2023-10-31T10:43:12;7.43;;;6.72;;
33421;SDS011;19763;55.798;37.782;2023-10-31T10:45:43;10.95;;;7.07;;
33421;SDS011;19763;55.798;37.782;2023-10-31T10:48:14;9.95;;;6.70;;
33421;SDS011;19763;55.798;37.782;2023-10-31T10:50:42;13.98;;;10.77;;
33421;SDS011;19763;55.798;37.782;2023-10-31T10:53:21;9.68;;;8.50;;
33421;SDS011;19763;55.798;37.782;2023-10-31T10:55:51;9.70;;;7.70;;
33421;SDS011;19763;55.798;37.782;2023-10-31T10:58:44;12.07;;;9.50;;
33421;SDS011;19763;55.798;37.782;2023-10-31T11:01:26;9.93;;;8.32;;
33421;SDS011;19763;55.798;37.782;2023-10-31T11:03:56;14.00;;;7.55;;
33421;SDS011;19763;55.798;37.782;2023-10-31T11:06:24;12.10;;;8.40;;
33421;SDS011;19763;55.798;37.782;2023-10-31T11:08:50;8.20;;;7.18;;
33421;SDS011;19763;55.798;37.782;2023-10-31T11:11:18;8.80;;;7.30;;
33421;SDS011;19763;55.798;37.782;2023-10-31T11:13:46;11.80;;;8.38;;
33421;SDS011;19763;55.798;37.782;2023-10-31T11:16:13;11.80;;;8.50;;
33421;SDS011;19763;55.798;37.782;2023-10-31T11:19:06;8.75;;;7.50;;
33421;SDS011;19763;55.798;37.782;2023-10-31T11:21:34;13.18;;;7.93;;
33421;SDS011;19763;55.798;37.782;2023-10-31T11:24:00;9.45;;;7.60;;
33421;SDS011;19763;55.798;37.782;2023-10-31T11:26:26;10.55;;;8.25;;
33421;SDS011;19763;55.798;37.782;2023-10-31T11:29:02;9.85;;;8.13;;
33421;SDS011;19763;55.798;37.782;2023-10-31T11:31:31;10.48;;;8.73;;
33421;SDS011;19763;55.798;37.782;2023-10-31T11:34:01;9.80;;;8.68;;
33421;SDS011;19763;55.798;37.782;2023-10-31T11:36:29;12.73;;;9.02;;
33421;SDS011;19763;55.798;37.782;2023-10-31T11:41:56;12.10;;;9.10;;
33421;SDS011;19763;55.798;37.782;2023-10-31T11:44:22;11.20;;;8.57;;
33421;SDS011;19763;55.798;37.782;2023-10-31T11:46:51;14.65;;;8.40;;
33421;SDS011;19763;55.798;37.782;2023-10-31T11:49:18;13.90;;;9.30;;
33421;SDS011;19763;55.798;37.782;2023-10-31T11:52:17;13.25;;;7.93;;
33421;SDS011;19763;55.798;37.782;2023-10-31T11:54:43;14.48;;;8.48;;
33421;SDS011;19763;55.798;37.782;2023-10-31T11:57:09;10.27;;;8.20;;
33421;SDS011;19763;55.798;37.782;2023-10-31T11:59:36;15.63;;;9.10;;
33421;SDS011;19763;55.798;37.782;2023-10-31T12:02:16;9.02;;;7.47;;
33421;SDS011;19763;55.798;37.782;2023-10-31T12:04:43;8.68;;;7.53;;
33421;SDS011;19763;55.798;37.782;2023-10-31T12:07:09;11.73;;;8.70;;
33421;SDS011;19763;55.798;37.782;2023-10-31T12:09:47;10.13;;;8.18;;
33421;SDS011;19763;55.798;37.782;2023-10-31T12:12:14;14.07;;;8.55;;
33421;SDS011;19763;55.798;37.782;2023-10-31T12:14:40;12.68;;;9.13;;
33421;SDS011;19763;55.798;37.782;2023-10-31T12:17:06;9.98;;;8.93;;
33421;SDS011;19763;55.798;37.782;2023-10-31T12:19:33;14.00;;;10.30;;
33421;SDS011;19763;55.798;37.782;2023-10-31T12:21:59;15.65;;;11.10;;
33421;SDS011;19763;55.798;37.782;2023-10-31T12:24:25;21.10;;;15.68;;
33421;SDS011;19763;55.798;37.782;2023-10-31T12:26:51;25.90;;;20.63;;
33421;SDS011;19763;55.798;37.782;2023-10-31T12:34:11;34.13;;;25.35;;
33421;SDS011;19763;55.798;37.782;2023-10-31T12:36:37;29.63;;;24.08;;
33421;SDS011;19763;55.798;37.782;2023-10-31T12:39:04;33.90;;;26.20;;
33421;SDS011;19763;55.798;37.782;2023-10-31T12:41:32;35.40;;;26.38;;
33421;SDS011;19763;55.798;37.782;2023-10-31T12:43:58;36.03;;;26.08;;
33421;SDS011;19763;55.798;37.782;2023-10-31T12:48:55;38.33;;;27.77;;
33421;SDS011;19763;55.798;37.782;2023-10-31T12:51:22;34.72;;;25.98;;
33421;SDS011;19763;55.798;37.782;2023-10-31T12:53:50;35.67;;;27.45;;
33421;SDS011;19763;55.798;37.782;2023-10-31T12:59:06;36.00;;;25.20;;
33421;SDS011;19763;55.798;37.782;2023-10-31T13:01:34;35.50;;;25.35;;
33421;SDS011;19763;55.798;37.782;2023-10-31T13:04:01;32.38;;;24.23;;
33421;SDS011;19763;55.798;37.782;2023-10-31T13:06:30;38.00;;;25.45;;
33421;SDS011;19763;55.798;37.782;2023-10-31T13:08:56;39.17;;;26.30;;
33421;SDS011;19763;55.798;37.782;2023-10-31T13:11:31;33.75;;;24.45;;
33421;SDS011;19763;55.798;37.782;2023-10-31T13:13:57;37.42;;;24.40;;
33421;SDS011;19763;55.798;37.782;2023-10-31T13:16:27;31.17;;;23.92;;
33421;SDS011;19763;55.798;37.782;2023-10-31T13:18:53;32.95;;;27.35;;
33421;SDS011;19763;55.798;37.782;2023-10-31T13:21:21;32.05;;;24.92;;
33421;SDS011;19763;55.798;37.782;2023-10-31T13:23:47;32.30;;;24.55;;
33421;SDS011;19763;55.798;37.782;2023-10-31T13:26:13;33.22;;;23.45;;
33421;SDS011;19763;55.798;37.782;2023-10-31T13:28:39;29.35;;;24.95;;
33421;SDS011;19763;55.798;37.782;2023-10-31T13:31:06;27.80;;;23.55;;
33421;SDS011;19763;55.798;37.782;2023-10-31T13:33:35;33.92;;;23.88;;
33421;SDS011;19763;55.798;37.782;2023-10-31T13:36:01;28.40;;;23.25;;
33421;SDS011;19763;55.798;37.782;2023-10-31T13:38:26;35.20;;;24.10;;
33421;SDS011;19763;55.798;37.782;2023-10-31T13:40:52;27.23;;;23.23;;
33421;SDS011;19763;55.798;37.782;2023-10-31T13:43:17;30.58;;;24.92;;
33421;SDS011;19763;55.798;37.782;2023-10-31T13:45:43;29.50;;;23.92;;
33421;SDS011;19763;55.798;37.782;2023-10-31T13:48:09;28.77;;;24.27;;
33421;SDS011;19763;55.798;37.782;2023-10-31T13:50:36;26.85;;;23.60;;
33421;SDS011;19763;55.798;37.782;2023-10-31T13:53:02;30.05;;;23.20;;
33421;SDS011;19763;55.798;37.782;2023-10-31T13:55:29;35.47;;;28.90;;
33421;SDS011;19763;55.798;37.782;2023-10-31T13:57:55;30.73;;;23.08;;
33421;SDS011;19763;55.798;37.782;2023-10-31T14:00:21;27.40;;;22.73;;
33421;SDS011;19763;55.798;37.782;2023-10-31T14:02:46;26.83;;;20.85;;
33421;SDS011;19763;55.798;37.782;2023-10-31T14:05:12;25.67;;;21.40;;
33421;SDS011;19763;55.798;37.782;2023-10-31T14:07:38;29.40;;;22.25;;
33421;SDS011;19763;55.798;37.782;2023-10-31T14:10:04;25.67;;;22.67;;
33421;SDS011;19763;55.798;37.782;2023-10-31T14:12:30;27.77;;;21.35;;
33421;SDS011;19763;55.798;37.782;2023-10-31T14:14:56;28.50;;;22.45;;
33421;SDS011;19763;55.798;37.782;2023-10-31T14:17:21;26.10;;;21.23;;
33421;SDS011;19763;55.798;37.782;2023-10-31T14:19:48;28.02;;;23.17;;
33421;SDS011;19763;55.798;37.782;2023-10-31T14:22:14;27.95;;;22.38;;
33421;SDS011;19763;55.798;37.782;2023-10-31T14:24:39;30.10;;;23.48;;
33421;SDS011;19763;55.798;37.782;2023-10-31T14:27:05;34.22;;;23.52;;
33421;SDS011;19763;55.798;37.782;2023-10-31T14:29:31;26.90;;;21.95;;
33421;SDS011;19763;55.798;37.782;2023-10-31T14:31:57;30.63;;;21.45;;
33421;SDS011;19763;55.798;37.782;2023-10-31T14:34:30;27.88;;;21.40;;
33421;SDS011;19763;55.798;37.782;2023-10-31T14:36:55;29.92;;;22.63;;
33421;SDS011;19763;55.798;37.782;2023-10-31T14:39:21;30.60;;;23.00;;